Time;durP1;ratioP1;P1;durP2;ratioP2;P2;SDS_P1;SDS_P2;PMS_P1;PMS_P2;Temp;Humidity;BMP_temperature;BMP_pressure;BME280_temperature;BME280_humidity;BME280_pressure;Samples;Min_cycle;Max_cycle;Signal;HPM_P1;HPM_P2
2022/07/18 00:01:36;;;;;;;3.97;2.47;;;;;;;14.62;67.41;100566.78;4878604;29;20033;-87
2022/07/18 00:04:02;;;;;;;4.70;2.72;;;;;;;14.62;67.81;100569.41;4888204;29;20108;-93
2022/07/18 00:06:47;;;;;;;4.22;1.90;;;;;;;14.61;68.13;100570.31;4880148;29;20134;-91
2022/07/18 00:09:13;;;;;;;4.38;2.13;;;;;;;14.53;68.68;100567.22;4894440;29;20045;-91
2022/07/18 00:12:00;;;;;;;4.03;2.30;;;;;;;14.43;69.13;100558.91;4879649;29;20041;-93
2022/07/18 00:14:25;;;;;;;3.83;2.22;;;;;;;14.37;69.43;100561.00;4880105;29;20472;-91
2022/07/18 00:16:51;;;;;;;2.85;2.10;;;;;;;14.30;69.79;100556.97;4910083;28;20126;-90
2022/07/18 00:19:18;;;;;;;3.25;2.00;;;;;;;14.30;70.44;100560.44;4954669;28;20035;-89
2022/07/18 00:21:43;;;;;;;3.75;1.83;;;;;;;14.34;70.87;100571.63;4971286;28;20079;-91
2022/07/18 00:24:09;;;;;;;2.67;2.13;;;;;;;14.30;71.32;100560.44;4970621;28;20534;-91
2022/07/18 00:26:34;;;;;;;6.22;2.17;;;;;;;14.21;70.92;100553.00;4939300;29;20039;-92
2022/07/18 00:29:00;;;;;;;2.60;2.10;;;;;;;14.15;71.36;100561.16;4956076;29;20483;-92
2022/07/18 00:31:26;;;;;;;3.95;2.20;;;;;;;14.08;71.97;100557.97;4939582;29;20436;-93
2022/07/18 00:33:51;;;;;;;4.55;2.20;;;;;;;14.06;71.87;100548.47;4955420;29;20094;-92
2022/07/18 00:36:16;;;;;;;5.45;2.53;;;;;;;14.07;72.72;100556.25;4938824;29;20408;-89
2022/07/18 00:38:42;;;;;;;2.38;1.70;;;;;;;14.03;73.10;100552.13;4957097;28;20050;-90
2022/07/18 00:41:07;;;;;;;4.63;2.47;;;;;;;13.99;73.57;100553.19;4957666;28;20031;-90
2022/07/18 00:43:33;;;;;;;4.85;2.60;;;;;;;13.95;73.70;100549.00;4957309;28;20042;-92
2022/07/18 00:45:58;;;;;;;2.63;2.38;;;;;;;13.92;74.29;100551.75;4957000;28;20474;-86
2022/07/18 00:48:23;;;;;;;3.38;2.17;;;;;;;13.84;74.34;100549.47;4955880;28;20461;-86
2022/07/18 00:50:49;;;;;;;3.88;2.35;;;;;;;13.83;74.73;100539.09;4952784;28;20040;-86
2022/07/18 00:53:15;;;;;;;3.00;2.13;;;;;;;13.90;74.58;100545.72;4936503;29;20035;-86
2022/07/18 00:55:42;;;;;;;3.03;2.13;;;;;;;13.92;74.85;100559.59;4955068;29;20039;-91
2022/07/18 00:58:09;;;;;;;4.00;2.13;;;;;;;13.72;74.95;100537.78;4958542;28;20066;-92
2022/07/18 01:03:40;;;;;;;5.10;2.40;;;;;;;13.69;75.51;100532.72;4973102;28;20570;-90
2022/07/18 01:06:06;;;;;;;5.43;2.63;;;;;;;13.65;75.90;100535.50;4956369;28;20129;-89
2022/07/18 01:08:32;;;;;;;2.17;1.95;;;;;;;13.76;76.38;100554.22;4972398;28;20026;-87
2022/07/18 01:10:57;;;;;;;2.47;2.00;;;;;;;13.76;75.90;100554.22;4955624;28;20052;-88
2022/07/18 01:13:23;;;;;;;3.10;2.25;;;;;;;13.67;76.36;100549.41;4971737;28;20046;-87
2022/07/18 01:15:48;;;;;;;2.65;1.92;;;;;;;13.64;76.60;100552.16;4956680;28;20101;-90
2022/07/18 01:18:14;;;;;;;4.03;2.40;;;;;;;13.60;76.60;100550.56;4957249;28;20137;-88
2022/07/18 01:20:39;;;;;;;2.53;1.85;;;;;;;13.60;76.73;100554.03;4956289;28;20057;-89
2022/07/18 01:23:05;;;;;;;3.72;2.17;;;;;;;13.60;76.71;100550.56;4991664;28;20042;-88
2022/07/18 01:25:31;;;;;;;2.33;2.10;;;;;;;13.43;76.50;100525.16;4973931;28;20038;-88
2022/07/18 01:27:56;;;;;;;3.78;1.95;;;;;;;13.59;77.02;100552.34;4974975;28;20125;-88
2022/07/18 01:30:23;;;;;;;3.30;2.30;;;;;;;13.49;77.57;100543.22;4974635;28;20386;-89
2022/07/18 01:33:00;;;;;;;2.25;2.05;;;;;;;13.48;77.57;100539.75;4952193;28;20039;-88
2022/07/18 01:35:26;;;;;;;4.72;2.20;;;;;;;13.26;77.27;100501.50;4935853;29;20475;-88
2022/07/18 01:37:53;;;;;;;3.38;1.95;;;;;;;13.46;77.23;100543.34;4936215;29;20054;-87
2022/07/18 01:40:18;;;;;;;3.50;1.98;;;;;;;13.47;77.57;100550.28;4935731;29;20027;-87
2022/07/18 01:42:44;;;;;;;2.42;1.92;;;;;;;13.39;77.48;100555.84;4936081;29;20035;-87
2022/07/18 01:45:09;;;;;;;3.85;2.10;;;;;;;13.28;78.01;100549.41;4936054;29;20035;-87
2022/07/18 01:47:35;;;;;;;3.20;2.05;;;;;;;13.26;78.27;100552.06;4935716;29;20035;-87
2022/07/18 01:50:00;;;;;;;3.97;2.55;;;;;;;13.21;78.42;100533.06;4935896;29;20027;-87
2022/07/18 01:52:25;;;;;;;2.97;1.98;;;;;;;13.31;78.68;100557.09;4951903;29;20483;-86
2022/07/18 01:54:51;;;;;;;2.83;2.20;;;;;;;13.24;79.33;100556.53;4937086;29;20439;-87
2022/07/18 01:57:16;;;;;;;2.92;1.95;;;;;;;13.29;79.85;100558.94;4936436;29;20058;-89
2022/07/18 01:59:41;;;;;;;2.85;1.90;;;;;;;13.19;79.32;100546.22;4935859;29;20070;-89
2022/07/18 02:02:07;;;;;;;4.03;2.10;;;;;;;13.27;79.91;100556.38;4952195;29;20038;-89
2022/07/18 02:07:16;;;;;;;3.30;2.20;;;;;;;13.21;79.75;100561.84;4994749;28;20053;-91
2022/07/18 02:09:41;;;;;;;2.95;2.15;;;;;;;13.12;79.92;100554.41;4976480;28;20027;-89
2022/07/18 02:12:07;;;;;;;5.50;2.28;;;;;;;13.13;79.71;100556.09;4975565;28;20031;-89
2022/07/18 02:14:32;;;;;;;4.45;1.98;;;;;;;13.02;79.21;100534.75;4975484;28;20026;-88
2022/07/18 02:16:58;;;;;;;3.45;2.13;;;;;;;13.15;78.16;100559.50;4975234;28;20034;-88
2022/07/18 02:19:23;;;;;;;2.10;1.80;;;;;;;13.15;78.43;100564.75;4975001;28;20018;-88
2022/07/18 02:21:48;;;;;;;4.45;1.95;;;;;;;13.14;78.86;100560.41;4975825;28;20062;-91
2022/07/18 02:24:14;;;;;;;3.35;2.10;;;;;;;13.19;79.15;100564.53;4975897;28;20037;-90
2022/07/18 02:26:39;;;;;;;2.78;2.25;;;;;;;13.07;78.32;100540.69;4976072;28;20026;-90
2022/07/18 02:29:04;;;;;;;5.05;2.17;;;;;;;13.21;78.43;100567.09;4976155;28;20034;-89
2022/07/18 02:31:30;;;;;;;4.32;2.20;;;;;;;13.19;78.60;100558.47;4952371;29;20039;-89
2022/07/18 02:33:55;;;;;;;6.40;2.25;;;;;;;13.20;78.72;100560.16;4952427;28;20036;-90
2022/07/18 02:36:21;;;;;;;6.93;2.50;;;;;;;13.18;78.48;100567.19;4954194;28;20111;-89
2022/07/18 02:38:46;;;;;;;3.67;2.20;;;;;;;13.13;78.63;100554.31;4955943;28;20076;-90
2022/07/18 02:41:11;;;;;;;6.63;2.28;;;;;;;13.14;78.66;100553.41;4955353;28;20134;-87
2022/07/18 02:43:37;;;;;;;3.50;2.47;;;;;;;13.15;78.60;100560.34;4955283;29;20028;-90
2022/07/18 02:46:02;;;;;;;12.82;10.43;;;;;;;13.17;79.72;100562.91;4956212;28;20051;-89
2022/07/18 02:48:28;;;;;;;8.30;4.53;;;;;;;13.13;79.98;100553.47;4955008;28;20598;-89
2022/07/18 02:50:53;;;;;;;4.60;2.47;;;;;;;13.15;78.36;100552.50;4955451;29;20235;-89
2022/07/18 02:53:19;;;;;;;3.55;2.33;;;;;;;13.19;78.76;100553.22;4955781;28;20038;-89
2022/07/18 02:55:44;;;;;;;4.93;2.60;;;;;;;13.22;78.86;100561.81;4954756;28;20118;-88
2022/07/18 02:58:10;;;;;;;2.38;1.98;;;;;;;13.25;79.79;100563.44;4957662;28;20076;-88
2022/07/18 03:00:35;;;;;;;5.28;2.53;;;;;;;13.15;79.35;100546.44;4955174;29;20049;-87
2022/07/18 03:03:00;;;;;;;3.08;2.40;;;;;;;13.22;79.05;100558.31;4968046;28;20061;-89
2022/07/18 03:05:26;;;;;;;6.00;2.95;;;;;;;13.17;79.40;100549.81;4979279;28;20026;-89
2022/07/18 03:07:51;;;;;;;4.03;2.38;;;;;;;13.15;79.69;100544.66;4979148;28;20029;-87
2022/07/18 03:10:16;;;;;;;4.85;2.45;;;;;;;13.22;79.80;100553.97;4978953;28;20049;-87
2022/07/18 03:12:42;;;;;;;4.55;2.58;;;;;;;13.15;80.32;100541.19;4978392;28;20026;-88
2022/07/18 03:15:08;;;;;;;3.90;2.45;;;;;;;13.15;80.20;100549.91;4978457;28;20061;-87
2022/07/18 03:17:33;;;;;;;3.95;2.30;;;;;;;13.22;80.48;100555.69;4978533;28;20452;-88
2022/07/18 03:19:58;;;;;;;5.50;2.28;;;;;;;13.13;80.73;100538.63;4978403;28;20026;-88
2022/07/18 03:22:24;;;;;;;3.53;2.58;;;;;;;13.16;80.33;100553.34;4996093;28;20031;-91
2022/07/18 03:24:49;;;;;;;4.22;2.80;;;;;;;13.11;80.29;100553.56;4980459;28;20232;-92
2022/07/18 03:27:14;;;;;;;4.32;2.70;;;;;;;13.15;80.77;100554.28;4980440;28;20037;-91
2022/07/18 03:29:40;;;;;;;4.50;2.60;;;;;;;13.16;81.43;100562.06;4980073;28;20033;-91
2022/07/18 03:32:05;;;;;;;4.40;2.80;;;;;;;13.15;81.28;100555.13;4980287;28;20115;-91
2022/07/18 03:34:31;;;;;;;6.07;2.70;;;;;;;13.15;81.28;100562.97;4979965;28;20026;-91
2022/07/18 03:36:56;;;;;;;5.25;2.78;;;;;;;13.20;82.04;100562.78;4980064;28;20577;-91
2022/07/18 03:39:22;;;;;;;4.68;2.72;;;;;;;13.26;81.97;100572.16;4980163;28;20034;-91
2022/07/18 03:41:47;;;;;;;3.20;2.40;;;;;;;13.26;82.41;100575.59;4979952;28;20536;-91
2022/07/18 03:44:12;;;;;;;4.55;2.47;;;;;;;13.19;82.96;100561.94;4980171;28;20022;-91
2022/07/18 03:46:38;;;;;;;5.50;2.60;;;;;;;13.29;83.22;100582.50;4995500;28;20034;-89
2022/07/18 03:49:04;;;;;;;3.30;2.42;;;;;;;13.30;83.34;100578.94;4978483;28;20493;-89
2022/07/18 03:51:29;;;;;;;4.57;2.53;;;;;;;13.35;83.13;100577.81;4974591;28;20585;-89
2022/07/18 03:53:54;;;;;;;3.55;2.58;;;;;;;13.23;83.47;100565.25;4974646;28;20053;-88
2022/07/18 03:56:20;;;;;;;6.80;3.10;;;;;;;13.39;84.00;100581.16;4958526;28;20045;-89
2022/07/18 03:58:45;;;;;;;5.00;2.50;;;;;;;13.43;83.75;100578.34;4974533;28;20604;-89
2022/07/18 04:01:11;;;;;;;5.90;3.28;;;;;;;13.38;82.86;100561.16;4974764;28;20043;-90
2022/07/18 04:03:36;;;;;;;5.07;3.25;;;;;;;13.45;82.17;100573.06;4973962;28;20027;-89
2022/07/18 04:06:02;;;;;;;6.55;3.63;;;;;;;13.48;81.96;100570.28;4973986;28;20043;-88
2022/07/18 04:08:27;;;;;;;7.07;3.83;;;;;;;13.50;82.05;100563.22;4973993;28;20407;-89
2022/07/18 04:10:53;;;;;;;7.38;3.63;;;;;;;13.60;82.59;100571.53;4973782;28;20046;-89
2022/07/18 04:13:18;;;;;;;4.50;3.28;;;;;;;13.67;82.39;100579.03;4973924;28;20030;-89
2022/07/18 04:15:44;;;;;;;5.72;3.50;;;;;;;13.75;78.75;100570.84;4973618;28;20039;-89
2022/07/18 04:18:09;;;;;;;6.43;3.45;;;;;;;13.76;79.13;100542.88;4973476;28;20043;-88
2022/07/18 04:20:36;;;;;;;5.78;4.07;;;;;;;14.16;78.21;100571.56;4957502;28;20035;-89
2022/07/18 04:23:05;;;;;;;7.07;3.45;;;;;;;14.57;77.10;100573.16;4989596;28;20042;-88
2022/07/18 04:25:39;;;;;;;7.47;3.30;;;;;;;15.32;75.09;100572.88;4978136;28;20363;-88
2022/07/18 04:28:05;;;;;;;7.07;3.30;;;;;;;15.52;73.15;100557.88;4954314;29;20102;-89
2022/07/18 04:30:32;;;;;;;12.75;4.05;;;;;;;15.57;71.42;100567.22;4938429;29;20043;-88
2022/07/18 04:33:00;;;;;;;8.23;2.95;;;;;;;15.56;71.15;100567.31;4938285;29;20451;-90
2022/07/18 04:35:26;;;;;;;8.10;3.42;;;;;;;15.60;70.29;100548.69;4938589;29;20028;-90
2022/07/18 04:37:51;;;;;;;7.00;2.58;;;;;;;15.81;69.80;100559.84;4938536;29;20054;-89
2022/07/18 04:40:17;;;;;;;6.05;3.08;;;;;;;15.87;69.91;100559.50;4954337;29;20479;-89
2022/07/18 04:42:43;;;;;;;6.53;3.20;;;;;;;16.07;70.75;100558.44;4954338;29;20039;-89
2022/07/18 04:45:09;;;;;;;6.55;3.13;;;;;;;16.24;68.79;100548.75;4954323;28;20030;-90
2022/07/18 04:47:35;;;;;;;7.88;3.35;;;;;;;16.62;69.04;100567.63;4938234;29;20052;-90
2022/07/18 04:50:00;;;;;;;6.97;3.60;;;;;;;17.06;66.73;100558.97;4938499;29;20114;-90
2022/07/18 04:52:26;;;;;;;6.85;3.22;;;;;;;17.60;63.92;100554.78;4938219;29;20134;-90
2022/07/18 04:54:51;;;;;;;7.13;3.15;;;;;;;17.92;60.90;100547.56;4954432;29;20035;-90
2022/07/18 04:57:17;;;;;;;6.82;3.20;;;;;;;18.22;61.07;100546.56;4954256;29;20035;-89
2022/07/18 04:59:44;;;;;;;6.80;3.42;;;;;;;18.32;60.60;100552.09;4972491;28;20125;-89
2022/07/18 05:02:09;;;;;;;6.82;3.00;;;;;;;18.31;60.34;100564.44;4978599;28;20026;-92
2022/07/18 05:04:36;;;;;;;6.10;3.40;;;;;;;18.34;61.22;100558.97;4978505;28;20030;-93
2022/07/18 05:07:02;;;;;;;5.85;3.15;;;;;;;18.28;61.78;100537.41;4978571;28;20034;-92
2022/07/18 05:09:28;;;;;;;6.18;2.95;;;;;;;18.59;61.42;100560.03;4977980;28;20358;-91
2022/07/18 05:11:54;;;;;;;5.05;2.95;;;;;;;18.78;60.39;100557.03;4978283;28;20066;-92
2022/07/18 05:14:20;;;;;;;5.18;2.90;;;;;;;19.03;59.40;100556.25;4977387;28;20054;-90
2022/07/18 05:16:46;;;;;;;4.78;3.00;;;;;;;19.33;59.85;100554.16;4976811;28;20030;-91
2022/07/18 05:19:11;;;;;;;9.05;3.00;;;;;;;19.73;55.96;100542.66;4977550;28;20470;-91
2022/07/18 05:21:37;;;;;;;5.22;3.03;;;;;;;20.19;55.31;100554.28;4977279;28;20125;-91
2022/07/18 05:24:02;;;;;;;5.95;2.58;;;;;;;20.62;53.89;100559.09;4977636;28;20089;-91
2022/07/18 05:26:28;;;;;;;4.88;2.50;;;;;;;21.03;51.81;100549.03;4977227;28;20556;-91
2022/07/18 05:28:53;;;;;;;5.38;2.40;;;;;;;21.49;51.13;100554.31;4978020;28;20026;-92
2022/07/18 05:31:18;;;;;;;5.60;2.75;;;;;;;21.99;47.62;100556.56;4977950;28;20528;-93
2022/07/18 05:33:44;;;;;;;6.20;2.65;;;;;;;21.80;47.83;100551.91;4977735;28;20038;-92
2022/07/18 05:36:09;;;;;;;4.38;2.38;;;;;;;21.57;48.51;100559.81;4977428;28;20026;-92
2022/07/18 05:38:35;;;;;;;6.07;2.30;;;;;;;21.26;49.00;100558.69;4977417;28;20040;-91
2022/07/18 05:41:01;;;;;;;5.57;2.50;;;;;;;21.16;49.56;100555.91;4976625;28;20133;-93
2022/07/18 05:43:26;;;;;;;5.40;2.42;;;;;;;21.04;49.24;100545.41;4976817;28;20030;-92
2022/07/18 05:45:52;;;;;;;2.85;2.20;;;;;;;21.07;49.15;100558.38;4976411;28;20397;-92
2022/07/18 05:48:17;;;;;;;7.22;2.28;;;;;;;21.03;48.94;100560.47;4976701;28;20026;-92
2022/07/18 05:50:44;;;;;;;4.47;2.70;;;;;;;20.94;49.06;100542.59;4977284;28;20030;-94
2022/07/18 05:53:09;;;;;;;3.78;2.47;;;;;;;20.90;49.75;100551.75;4977665;28;20076;-93
2022/07/18 05:55:35;;;;;;;5.65;2.63;;;;;;;20.88;49.92;100556.31;4977184;28;20027;-93
2022/07/18 05:58:01;;;;;;;8.25;2.75;;;;;;;20.79;49.73;100567.59;4977745;28;20058;-93
2022/07/18 06:00:26;;;;;;;6.65;3.13;;;;;;;20.64;51.73;100562.47;4973792;28;20043;-93
2022/07/18 06:02:52;;;;;;;5.78;2.90;;;;;;;20.55;50.97;100567.59;4973357;28;20047;-93
2022/07/18 06:05:18;;;;;;;5.32;3.10;;;;;;;20.56;51.16;100562.22;4973311;28;20049;-92
2022/07/18 06:07:43;;;;;;;6.93;2.70;;;;;;;20.67;51.89;100566.69;4973175;28;20037;-93
2022/07/18 06:10:09;;;;;;;5.22;2.20;;;;;;;20.71;49.61;100554.06;4972761;28;20446;-93
2022/07/18 06:12:34;;;;;;;5.68;3.10;;;;;;;20.89;48.80;100563.28;4973159;28;20038;-94
2022/07/18 06:15:00;;;;;;;3.25;1.98;;;;;;;21.23;47.56;100550.13;4973290;28;20045;-91
2022/07/18 06:17:27;;;;;;;4.20;2.35;;;;;;;21.72;46.92;100557.78;4972812;28;20051;-91
2022/07/18 06:19:53;;;;;;;4.43;2.28;;;;;;;22.76;45.13;100557.34;4972846;28;20043;-92
2022/07/18 06:22:19;;;;;;;4.75;2.25;;;;;;;24.01;41.46;100552.88;4973114;28;20415;-92
2022/07/18 06:24:45;;;;;;;6.20;2.50;;;;;;;24.65;38.61;100557.81;4972686;28;20031;-92
2022/07/18 06:27:10;;;;;;;6.40;2.13;;;;;;;24.50;38.47;100559.19;4972892;28;20093;-92
2022/07/18 06:29:36;;;;;;;4.90;2.53;;;;;;;24.14;39.66;100557.00;4972795;28;20034;-92
2022/07/18 06:32:01;;;;;;;4.03;2.60;;;;;;;24.19;39.36;100548.59;4976477;28;20049;-91
2022/07/18 06:34:27;;;;;;;2.47;2.15;;;;;;;24.53;38.65;100549.09;4976516;28;20490;-91
2022/07/18 06:36:52;;;;;;;4.07;2.45;;;;;;;25.56;37.33;100551.06;4976327;28;20037;-90
2022/07/18 06:39:18;;;;;;;6.03;2.55;;;;;;;26.83;34.68;100548.47;4976626;28;20029;-91
2022/07/18 06:41:44;;;;;;;4.65;2.25;;;;;;;28.01;32.63;100545.19;4976183;28;20105;-91
2022/07/18 06:44:10;;;;;;;3.55;1.98;;;;;;;29.16;31.54;100543.50;4976234;28;20065;-91
2022/07/18 06:46:36;;;;;;;5.45;1.83;;;;;;;30.37;29.78;100555.81;4975494;28;20030;-90
2022/07/18 06:49:02;;;;;;;4.28;2.20;;;;;;;31.11;28.58;100543.47;4975682;28;20478;-90
2022/07/18 06:51:28;;;;;;;4.85;2.08;;;;;;;31.70;27.81;100554.28;4975773;28;20502;-90
2022/07/18 06:53:54;;;;;;;7.50;2.22;;;;;;;32.10;27.44;100549.41;4975415;28;20030;-90
2022/07/18 06:56:19;;;;;;;5.68;2.20;;;;;;;32.42;26.57;100556.22;4975896;28;20109;-91
2022/07/18 06:58:48;;;;;;;5.20;2.38;;;;;;;32.58;26.15;100552.44;4976418;28;20041;-91
2022/07/18 07:01:15;;;;;;;5.00;2.33;;;;;;;32.50;26.80;100552.56;4976368;28;20035;-91
2022/07/18 07:03:40;;;;;;;5.82;2.30;;;;;;;32.35;27.37;100533.69;4974922;28;20026;-89
2022/07/18 07:06:06;;;;;;;6.80;2.50;;;;;;;32.63;26.75;100543.75;4975452;28;20037;-92
2022/07/18 07:08:31;;;;;;;4.80;2.63;;;;;;;32.66;26.91;100537.97;4976311;28;20390;-90
2022/07/18 07:10:56;;;;;;;5.45;2.35;;;;;;;32.87;26.67;100540.66;4974743;28;20035;-90
2022/07/18 07:13:22;;;;;;;7.75;2.85;;;;;;;32.91;25.97;100536.53;4974850;28;20030;-90
2022/07/18 07:15:47;;;;;;;4.10;2.40;;;;;;;33.03;25.74;100540.38;4950808;29;20513;-89
2022/07/18 07:18:12;;;;;;;4.40;2.20;;;;;;;33.06;25.39;100514.03;4951007;28;20138;-89
2022/07/18 07:20:38;;;;;;;3.30;2.17;;;;;;;33.18;24.83;100534.88;4951278;29;20043;-90
2022/07/18 07:23:07;;;;;;;3.97;1.77;;;;;;;33.10;24.37;100537.72;4954619;28;20611;-90
2022/07/18 07:25:32;;;;;;;4.82;2.25;;;;;;;33.18;24.73;100536.75;4916712;29;20071;-89
2022/07/18 07:27:58;;;;;;;5.32;1.98;;;;;;;33.20;24.02;100523.88;4917648;29;20091;-92
2022/07/18 07:30:23;;;;;;;2.95;1.85;;;;;;;32.98;23.29;100531.19;4902287;29;20040;-92
2022/07/18 07:32:50;;;;;;;2.90;1.95;;;;;;;32.93;23.90;100539.06;4902928;29;20071;-92
2022/07/18 07:35:17;;;;;;;4.35;1.95;;;;;;;32.54;22.48;100537.66;4917803;29;20032;-93
2022/07/18 07:37:45;;;;;;;3.50;2.28;;;;;;;32.44;23.94;100526.34;4900648;29;20079;-89
2022/07/18 07:40:12;;;;;;;4.55;1.70;;;;;;;32.51;24.02;100511.91;4915901;29;20488;-88
2022/07/18 07:42:37;;;;;;;3.53;1.80;;;;;;;32.72;24.77;100529.94;4915886;29;20079;-89
2022/07/18 07:45:04;;;;;;;3.53;1.90;;;;;;;32.71;23.34;100528.28;4900209;29;20036;-88
2022/07/18 07:47:29;;;;;;;5.03;1.90;;;;;;;32.79;24.30;100527.31;4931079;29;20059;-89
2022/07/18 07:49:55;;;;;;;3.20;1.95;;;;;;;32.87;23.70;100520.91;4934499;29;20034;-89
2022/07/18 07:52:23;;;;;;;5.03;1.75;;;;;;;32.81;24.29;100527.09;4934790;29;20062;-89
2022/07/18 07:54:48;;;;;;;5.15;1.90;;;;;;;32.77;24.80;100522.09;4918367;29;20083;-89
2022/07/18 07:57:14;;;;;;;3.63;1.85;;;;;;;32.83;24.15;100519.63;4965168;28;20046;-89
2022/07/18 07:59:39;;;;;;;4.43;1.95;;;;;;;32.80;24.02;100520.88;4993912;28;20037;-92
2022/07/18 08:02:05;;;;;;;3.40;1.77;;;;;;;32.49;23.98;100526.63;4994620;28;20528;-91
2022/07/18 08:04:30;;;;;;;3.88;2.00;;;;;;;32.11;24.99;100529.53;4994277;28;20068;-92
2022/07/18 08:06:56;;;;;;;3.63;2.00;;;;;;;31.91;25.49;100523.91;4977615;28;20031;-90
2022/07/18 08:09:21;;;;;;;5.20;2.33;;;;;;;31.39;25.17;100521.31;4993515;28;20458;-90
2022/07/18 08:11:47;;;;;;;3.38;2.13;;;;;;;30.55;26.37;100498.06;4994385;28;20092;-90
2022/07/18 08:14:12;;;;;;;3.97;2.22;;;;;;;30.36;26.14;100525.41;4977646;28;20517;-90
2022/07/18 08:16:38;;;;;;;4.20;1.90;;;;;;;29.78;26.73;100516.81;4993271;28;20031;-90
2022/07/18 08:19:03;;;;;;;6.10;2.25;;;;;;;29.45;27.43;100501.81;4993308;28;20066;-89
2022/07/18 08:21:29;;;;;;;3.95;1.60;;;;;;;29.32;28.20;100508.56;4994710;28;20037;-88
2022/07/18 08:23:54;;;;;;;2.88;1.83;;;;;;;29.28;28.72;100514.44;4993175;28;20037;-90
2022/07/18 08:26:20;;;;;;;5.68;1.92;;;;;;;29.20;28.97;100509.09;4994944;28;20089;-89
2022/07/18 08:28:45;;;;;;;3.65;1.98;;;;;;;28.89;27.84;100512.47;4972435;28;20170;-89
2022/07/18 08:31:11;;;;;;;3.35;1.70;;;;;;;28.69;29.09;100514.66;4972836;28;20038;-89
2022/07/18 08:33:36;;;;;;;2.33;1.70;;;;;;;28.47;29.87;100516.16;4956133;28;20478;-92
2022/07/18 08:36:02;;;;;;;8.70;2.67;;;;;;;28.27;29.19;100512.09;4974019;28;20489;-92
2022/07/18 08:38:27;;;;;;;2.10;1.77;;;;;;;28.08;30.26;100498.00;4956924;28;20039;-88
2022/07/18 08:40:54;;;;;;;3.33;1.60;;;;;;;27.93;30.46;100507.66;4972081;28;20177;-87
2022/07/18 08:43:19;;;;;;;3.20;1.92;;;;;;;27.86;30.52;100512.03;4969202;28;20399;-86
2022/07/18 08:45:46;;;;;;;4.00;2.47;;;;;;;27.73;31.04;100512.47;4955856;28;20026;-87
2022/07/18 08:48:18;;;;;;;2.78;1.90;;;;;;;27.42;31.11;100508.59;4972144;28;20459;-87
2022/07/18 08:50:45;;;;;;;2.88;1.60;;;;;;;26.95;31.61;100491.09;4956477;28;20023;-94
2022/07/18 08:53:12;;;;;;;4.75;2.10;;;;;;;26.86;32.33;100500.06;4974778;28;20050;-95
2022/07/18 08:55:38;;;;;;;3.35;1.85;;;;;;;26.60;32.92;100482.16;4974680;28;20160;-93
2022/07/18 08:58:03;;;;;;;2.83;1.70;;;;;;;26.66;32.82;100506.56;4957593;28;20038;-83
2022/07/18 09:00:29;;;;;;;2.45;1.70;;;;;;;26.60;33.04;100503.53;4989525;28;20057;-84
2022/07/18 09:02:59;;;;;;;3.17;1.75;;;;;;;26.60;32.99;100500.84;4993693;28;20064;-84
2022/07/18 09:05:24;;;;;;;3.97;1.98;;;;;;;26.60;32.48;100514.22;4993820;28;20110;-82
2022/07/18 09:07:50;;;;;;;2.13;1.70;;;;;;;26.53;32.92;100513.16;4993506;28;20110;-82
2022/07/18 09:10:16;;;;;;;2.58;1.77;;;;;;;26.32;32.29;100493.88;4993807;28;20058;-82
2022/07/18 09:12:55;;;;;;;2.83;1.80;;;;;;;26.31;32.66;100497.56;4993645;28;20030;-84
2022/07/18 09:15:20;;;;;;;3.13;1.87;;;;;;;26.16;32.41;100486.56;4993500;28;20068;-84
2022/07/18 09:17:50;;;;;;;4.05;1.70;;;;;;;26.04;31.99;100496.63;5008382;28;20069;-84
2022/07/18 09:20:16;;;;;;;4.83;2.03;;;;;;;25.99;33.04;100496.22;4992507;28;20586;-84
2022/07/18 09:22:44;;;;;;;4.20;1.95;;;;;;;25.81;32.39;100495.38;4993105;28;20284;-84
2022/07/18 09:25:21;;;;;;;4.85;1.88;;;;;;;25.53;32.89;100491.81;4992308;28;20030;-84
2022/07/18 09:27:48;;;;;;;5.00;2.20;;;;;;;25.54;34.57;100496.19;4991936;28;20029;-84
2022/07/18 09:30:29;;;;;;;2.20;1.60;;;;;;;25.49;33.77;100488.59;4993438;28;20084;-84
2022/07/18 09:33:04;;;;;;;5.00;2.05;;;;;;;25.58;33.73;100497.56;4993038;28;20022;-84
2022/07/18 09:35:36;;;;;;;4.43;2.05;;;;;;;25.56;33.94;100494.19;5008430;28;20539;-84
2022/07/18 09:38:10;;;;;;;2.70;1.70;;;;;;;25.48;34.17;100486.91;4975520;28;20377;-84
2022/07/18 09:40:37;;;;;;;3.65;1.75;;;;;;;25.46;34.90;100486.25;4991887;28;20030;-84
2022/07/18 09:43:16;;;;;;;4.18;2.42;;;;;;;25.56;35.79;100488.84;4992851;28;20093;-84
2022/07/18 09:45:49;;;;;;;2.25;2.00;;;;;;;25.59;34.54;100501.91;4974731;28;20034;-84
2022/07/18 09:48:20;;;;;;;6.15;1.90;;;;;;;25.45;34.45;100484.56;4993168;28;20022;-84
2022/07/18 09:50:48;;;;;;;3.22;1.83;;;;;;;25.33;34.45;100497.25;4993114;28;20116;-85
2022/07/18 09:53:19;;;;;;;3.47;1.95;;;;;;;25.35;35.74;100489.94;5008109;28;20085;-85
2022/07/18 09:55:53;;;;;;;3.17;1.95;;;;;;;25.36;35.67;100480.09;4992616;28;20077;-85
2022/07/18 09:58:49;;;;;;;3.83;1.92;;;;;;;25.52;34.93;100498.13;4993093;28;20034;-84
2022/07/18 10:01:16;;;;;;;2.00;1.80;;;;;;;25.43;33.79;100485.69;4975519;28;20038;-85
2022/07/18 10:03:42;;;;;;;4.55;1.95;;;;;;;25.42;33.67;100470.69;4975399;28;20620;-85
2022/07/18 10:06:08;;;;;;;3.45;1.75;;;;;;;25.42;33.21;100482.19;4974992;28;20117;-85
2022/07/18 10:08:35;;;;;;;2.85;1.90;;;;;;;25.39;33.18;100485.16;4992653;28;20026;-84
2022/07/18 10:11:02;;;;;;;3.30;1.77;;;;;;;25.30;34.50;100475.38;4991154;28;20501;-83
2022/07/18 10:13:30;;;;;;;3.97;1.70;;;;;;;25.41;34.54;100480.53;4993026;28;20030;-83
2022/07/18 10:15:56;;;;;;;3.28;2.08;;;;;;;25.44;34.91;100469.53;4991034;28;20031;-84
2022/07/18 10:18:23;;;;;;;2.75;1.63;;;;;;;25.34;33.81;100455.41;4989794;28;20058;-83
2022/07/18 10:21:02;;;;;;;3.85;2.10;;;;;;;25.49;35.09;100479.75;4990078;28;20050;-83
2022/07/18 10:23:34;;;;;;;4.28;2.00;;;;;;;25.55;33.65;100485.34;5006314;28;20042;-83
2022/07/18 10:26:19;;;;;;;3.63;1.92;;;;;;;25.58;32.64;100484.22;4974176;28;20494;-83
2022/07/18 10:28:58;;;;;;;2.58;2.03;;;;;;;25.47;32.59;100476.41;5000151;28;20081;-82
2022/07/18 10:31:28;;;;;;;2.17;1.80;;;;;;;25.23;33.19;100455.59;4975393;28;20239;-83
2022/07/18 10:34:14;;;;;;;3.13;2.00;;;;;;;25.19;33.62;100464.88;4957444;28;20043;-83
2022/07/18 10:36:49;;;;;;;2.53;1.88;;;;;;;25.29;35.86;100473.69;4986843;28;20490;-83
2022/07/18 10:39:20;;;;;;;4.95;1.92;;;;;;;25.32;35.32;100465.38;4970495;28;20121;-82
2022/07/18 10:41:48;;;;;;;3.63;2.00;;;;;;;25.43;35.21;100473.19;4953930;28;20035;-83
2022/07/18 10:44:23;;;;;;;6.68;1.88;;;;;;;25.51;36.03;100470.63;4970449;28;20042;-83
2022/07/18 10:47:03;;;;;;;5.20;2.22;;;;;;;25.56;35.14;100471.03;4970263;28;20035;-86
2022/07/18 10:49:51;;;;;;;2.92;2.08;;;;;;;25.35;32.85;100468.59;4984042;28;20387;-87
2022/07/18 10:52:23;;;;;;;3.17;1.85;;;;;;;25.23;33.05;100460.94;4989097;28;20034;-90
2022/07/18 10:55:15;;;;;;;2.70;1.80;;;;;;;25.05;33.60;100450.16;4990114;28;20054;-92
2022/07/18 10:58:01;;;;;;;3.35;1.80;;;;;;;25.16;34.53;100452.69;4991312;28;20031;-93
2022/07/18 11:00:37;;;;;;;3.95;1.73;;;;;;;25.26;34.41;100449.97;4916816;29;20040;-91
2022/07/18 11:03:10;;;;;;;2.72;2.03;;;;;;;25.21;33.64;100442.41;4901580;29;20412;-92
2022/07/18 11:05:45;;;;;;;2.47;1.60;;;;;;;25.21;33.53;100437.09;4901742;29;20048;-92
2022/07/18 11:08:15;;;;;;;4.60;2.50;;;;;;;25.27;33.20;100448.97;4917450;29;20063;-92
2022/07/18 11:11:01;;;;;;;;;;;;;;;25.27;33.29;100444.47;4917721;29;20515;-92
2022/07/18 11:13:32;;;;;;;4.07;2.10;;;;;;;25.17;34.64;100413.53;4933232;29;19911;-93
2022/07/18 11:16:12;;;;;;;2.40;1.70;;;;;;;25.38;34.05;100420.31;4917488;29;20123;-93
2022/07/18 11:18:57;;;;;;;3.00;2.30;;;;;;;25.47;33.18;100429.25;4898033;29;20084;-93
2022/07/18 11:21:39;;;;;;;2.50;1.85;;;;;;;25.39;33.91;100424.63;4912206;29;20425;-92
2022/07/18 11:24:13;;;;;;;2.63;2.03;;;;;;;25.34;34.26;100410.09;4883094;29;20080;-94
2022/07/18 11:26:47;;;;;;;2.30;1.75;;;;;;;25.23;35.08;100379.13;4911673;29;20117;-92
2022/07/18 11:29:18;;;;;;;3.47;2.00;;;;;;;25.31;34.54;100373.88;4913583;29;20041;-93
2022/07/18 11:31:46;;;;;;;2.80;1.70;;;;;;;25.51;34.58;100406.63;4898332;29;20056;-92